Time;durP1;ratioP1;P1;durP2;ratioP2;P2;SDS_P1;SDS_P2;PMS_P1;PMS_P2;Temp;Humidity;BMP_temperature;BMP_pressure;BME280_temperature;BME280_humidity;BME280_pressure;Samples;Min_cycle;Max_cycle;Signal;HPM_P1;HPM_P2
2021/12/08 00:01:49;;;;;;;1.67;1.58;;;;;;;1.97;100.00;96444.22;5011023;28;20028;-87
2021/12/08 00:04:15;;;;;;;1.73;1.63;;;;;;;1.82;100.00;96423.00;5001714;28;20044;-86
2021/12/08 00:06:40;;;;;;;4.55;2.20;;;;;;;1.90;100.00;96441.97;5004666;28;20121;-86
2021/12/08 00:09:25;;;;;;;4.03;2.17;;;;;;;1.85;100.00;96446.56;5011001;28;20053;-86
2021/12/08 00:14:52;;;;;;;0.93;0.93;;;;;;;1.78;100.00;96451.28;5027517;28;20140;-86
2021/12/08 00:17:17;;;;;;;3.25;2.85;;;;;;;1.64;100.00;96444.00;5015345;28;20029;-87
2021/12/08 00:19:43;;;;;;;1.35;1.33;;;;;;;1.83;100.00;96473.00;5003996;28;20171;-87
2021/12/08 00:22:09;;;;;;;11.85;4.30;;;;;;;1.88;100.00;96484.19;5007865;28;20025;-87
2021/12/08 00:24:34;;;;;;;2.28;1.95;;;;;;;1.76;100.00;96468.06;4982592;28;20575;-86
2021/12/08 00:27:00;;;;;;;2.63;1.75;;;;;;;1.75;100.00;96474.28;4991807;28;20126;-86
2021/12/08 00:29:26;;;;;;;2.67;2.28;;;;;;;1.79;100.00;96466.16;5010545;28;20045;-87
2021/12/08 00:31:51;;;;;;;3.28;2.42;;;;;;;1.81;100.00;96471.38;4989694;28;20026;-86
2021/12/08 00:34:17;;;;;;;2.17;2.08;;;;;;;1.78;100.00;96468.88;4989989;28;20460;-88
2021/12/08 00:36:46;;;;;;;2.70;1.65;;;;;;;1.89;100.00;96482.44;4976191;28;20054;-86
2021/12/08 00:39:14;;;;;;;3.38;2.70;;;;;;;1.91;100.00;96491.97;4981051;28;20547;-87
2021/12/08 00:41:40;;;;;;;3.20;2.05;;;;;;;1.85;100.00;96486.97;4979213;28;20026;-86
2021/12/08 00:44:07;;;;;;;1.40;1.30;;;;;;;1.85;100.00;96483.47;4979142;28;20105;-86
2021/12/08 00:46:33;;;;;;;3.17;2.53;;;;;;;1.83;100.00;96470.38;4994577;28;20061;-85
2021/12/08 00:48:59;;;;;;;5.05;2.70;;;;;;;1.92;100.00;96483.16;4992714;28;20072;-88
2021/12/08 00:51:25;;;;;;;2.55;2.35;;;;;;;1.98;100.00;96497.81;4978602;28;20042;-86
2021/12/08 00:53:50;;;;;;;1.65;1.55;;;;;;;1.83;100.00;96485.34;4985598;28;20040;-86
2021/12/08 00:56:16;;;;;;;2.58;2.05;;;;;;;1.76;100.00;96486.53;4995441;28;20430;-87
2021/12/08 00:58:42;;;;;;;1.40;1.27;;;;;;;1.80;100.00;96493.38;4986786;28;20029;-86
2021/12/08 01:01:08;;;;;;;6.75;2.83;;;;;;;1.81;100.00;96492.47;4991693;28;20029;-87
2021/12/08 01:03:39;;;;;;;3.25;2.30;;;;;;;1.81;100.00;96484.56;4985584;28;20040;-87
2021/12/08 01:06:05;;;;;;;2.17;2.08;;;;;;;1.84;100.00;96476.50;4981770;28;20052;-87
2021/12/08 01:08:32;;;;;;;2.35;1.77;;;;;;;1.92;100.00;96492.84;4983221;28;20493;-86
2021/12/08 01:11:01;;;;;;;3.20;2.78;;;;;;;1.87;100.00;96489.56;4993389;28;20413;-87
2021/12/08 01:13:27;;;;;;;1.73;1.63;;;;;;;1.92;100.00;96498.09;4989306;28;20057;-86
2021/12/08 01:15:56;;;;;;;4.28;2.60;;;;;;;1.97;100.00;96506.69;4989291;28;20123;-86
2021/12/08 01:18:23;;;;;;;3.05;2.45;;;;;;;1.99;100.00;96510.97;4992133;28;20038;-85
2021/12/08 01:20:51;;;;;;;4.57;1.95;;;;;;;1.76;100.00;96502.34;4988775;28;20026;-86
2021/12/08 01:23:17;;;;;;;0.77;0.77;;;;;;;1.88;100.00;96514.97;5005543;28;20061;-85
2021/12/08 01:25:43;;;;;;;4.10;2.88;;;;;;;1.87;100.00;96510.66;5006033;28;20041;-86
2021/12/08 01:28:09;;;;;;;1.75;1.65;;;;;;;1.63;100.00;96492.34;5005836;28;20129;-86
2021/12/08 01:30:35;;;;;;;1.40;1.30;;;;;;;1.74;100.00;96493.66;5016759;28;20514;-86
2021/12/08 01:33:01;;;;;;;3.92;1.90;;;;;;;1.86;100.00;96511.56;5013608;28;20057;-87
2021/12/08 01:35:28;;;;;;;3.05;1.42;;;;;;;1.96;100.00;96526.06;5005857;28;20068;-86
2021/12/08 01:37:53;;;;;;;1.30;1.25;;;;;;;1.92;100.00;96517.41;5025485;28;20029;-85
2021/12/08 01:40:19;;;;;;;2.70;1.95;;;;;;;1.90;100.00;96508.72;5020422;28;20091;-88
2021/12/08 01:42:47;;;;;;;1.92;1.80;;;;;;;1.97;100.00;96519.88;5000635;28;20048;-88
2021/12/08 01:48:07;;;;;;;1.73;1.63;;;;;;;2.00;100.00;96522.38;5025488;28;20104;-88
2021/12/08 01:50:34;;;;;;;1.48;1.38;;;;;;;2.02;100.00;96531.06;5011990;28;20021;-85
2021/12/08 01:52:59;;;;;;;1.02;1.02;;;;;;;1.92;100.00;96504.25;5007535;28;20029;-82
2021/12/08 01:55:25;;;;;;;2.25;1.85;;;;;;;1.92;100.00;96514.78;5023450;28;20030;-87
2021/12/08 01:57:51;;;;;;;3.47;3.17;;;;;;;1.92;100.00;96513.91;5034227;28;20032;-87
2021/12/08 02:00:29;;;;;;;6.55;2.83;;;;;;;2.01;100.00;96521.41;5030030;28;20041;-85
2021/12/08 02:02:55;;;;;;;6.90;3.72;;;;;;;2.02;100.00;96518.72;5013546;28;20021;-87
2021/12/08 02:05:21;;;;;;;2.70;1.58;;;;;;;1.91;100.00;96505.16;5026307;28;20108;-87
2021/12/08 02:07:46;;;;;;;4.95;2.28;;;;;;;2.02;100.00;96509.97;5001947;28;20021;-86
2021/12/08 02:10:13;;;;;;;2.78;1.95;;;;;;;2.10;100.00;96537.69;5019009;28;20029;-86
2021/12/08 02:12:41;;;;;;;2.65;2.45;;;;;;;1.70;100.00;96478.88;5005252;28;20477;-87
2021/12/08 02:15:10;;;;;;;3.22;2.20;;;;;;;1.96;100.00;96515.50;5011687;28;20033;-86
2021/12/08 02:17:36;;;;;;;2.55;2.35;;;;;;;2.02;100.00;96531.06;5023456;28;20566;-86
2021/12/08 02:20:05;;;;;;;2.33;2.13;;;;;;;1.95;100.00;96521.69;5025942;28;20025;-87
2021/12/08 02:22:31;;;;;;;3.83;3.45;;;;;;;1.98;100.00;96526.81;5005343;28;20029;-86
2021/12/08 02:24:57;;;;;;;1.92;1.75;;;;;;;2.02;100.00;96525.78;5008458;28;20044;-86
2021/12/08 02:27:23;;;;;;;3.17;2.58;;;;;;;2.04;100.00;96529.19;5017295;28;20065;-86
2021/12/08 02:29:56;;;;;;;3.30;2.97;;;;;;;2.09;100.00;96543.03;5008647;28;20476;-86
2021/12/08 02:46:43;;;;;;;3.65;3.33;;;;;;;1.80;100.00;96548.72;5024093;28;20039;-85
2021/12/08 02:48:31;;;;;;;10.65;2.70;;;;;;;1.97;100.00;96549.69;5019584;28;20539;-85
2021/12/08 02:50:57;;;;;;;2.40;2.13;;;;;;;1.96;100.00;96542.72;5008863;28;20144;-87
2021/12/08 02:53:23;;;;;;;1.08;1.08;;;;;;;1.99;100.00;96549.66;5028881;28;20045;-86
2021/12/08 02:55:49;;;;;;;1.73;1.63;;;;;;;1.96;100.00;96553.28;5025908;28;20548;-87
2021/12/08 02:58:15;;;;;;;2.50;2.30;;;;;;;2.05;100.00;96573.09;5016524;28;20132;-86
2021/12/08 03:00:47;;;;;;;1.05;1.05;;;;;;;2.04;100.00;96574.88;5010268;28;20143;-86
2021/12/08 03:03:13;;;;;;;2.60;2.20;;;;;;;2.00;100.00;96561.91;5001041;28;20029;-87
2021/12/08 03:05:40;;;;;;;3.05;2.75;;;;;;;2.07;100.00;96571.25;5005621;28;20500;-88
2021/12/08 03:08:06;;;;;;;5.07;4.18;;;;;;;1.76;100.00;96555.91;5012133;28;20037;-87
2021/12/08 03:10:36;;;;;;;1.85;1.70;;;;;;;1.90;100.00;96586.97;4996178;28;20032;-86
2021/12/08 03:13:02;;;;;;;3.75;2.53;;;;;;;1.81;100.00;96582.09;5012885;28;20053;-85
2021/12/08 03:15:28;;;;;;;1.88;1.58;;;;;;;1.65;100.00;96579.25;5007761;28;20068;-88
2021/12/08 03:17:53;;;;;;;2.28;2.08;;;;;;;1.68;100.00;96583.53;5024864;28;20036;-88
2021/12/08 03:20:27;;;;;;;2.35;2.15;;;;;;;1.61;100.00;96575.03;5007739;28;20058;-86
2021/12/08 03:22:59;;;;;;;1.38;1.27;;;;;;;1.61;100.00;96570.59;5029512;28;20022;-85
2021/12/08 03:25:25;;;;;;;5.35;2.05;;;;;;;1.68;100.00;96572.97;5008772;28;20503;-87
2021/12/08 03:28:05;;;;;;;4.30;2.25;;;;;;;1.83;100.00;96606.59;4999643;28;20029;-86
2021/12/08 03:30:38;;;;;;;0.98;0.93;;;;;;;1.82;100.00;96602.22;5001397;28;20077;-85
2021/12/08 03:33:04;;;;;;;1.17;1.13;;;;;;;1.75;100.00;96579.72;5011946;28;20466;-87
2021/12/08 03:35:30;;;;;;;9.75;2.42;;;;;;;1.84;100.00;96595.13;5004435;28;20043;-87
2021/12/08 03:37:55;;;;;;;2.85;1.85;;;;;;;1.76;100.00;96587.53;5005404;28;20021;-86
2021/12/08 03:40:24;;;;;;;3.00;1.80;;;;;;;1.67;100.00;96587.94;5007392;28;20029;-87
2021/12/08 03:42:51;;;;;;;1.67;1.58;;;;;;;1.78;100.00;96608.56;5006513;28;20068;-88
2021/12/08 03:45:19;;;;;;;2.38;1.85;;;;;;;1.78;100.00;96612.06;5028265;28;20029;-86
2021/12/08 03:47:47;;;;;;;6.07;2.17;;;;;;;1.77;100.00;96591.03;5023459;28;20056;-86
2021/12/08 03:50:16;;;;;;;3.40;2.05;;;;;;;1.81;100.00;96604.03;5002980;28;20382;-87
2021/12/08 03:52:42;;;;;;;1.55;1.45;;;;;;;1.81;100.00;96605.81;5007488;28;20044;-85
2021/12/08 03:55:11;;;;;;;3.40;2.38;;;;;;;1.75;100.00;96596.38;5002763;28;20435;-85
2021/12/08 03:57:36;;;;;;;2.10;1.85;;;;;;;1.81;100.00;96603.16;5014120;28;20119;-87
2021/12/08 04:00:06;;;;;;;3.22;2.05;;;;;;;1.80;100.00;96598.81;5024517;28;20517;-85
2021/12/08 04:02:32;;;;;;;1.70;1.33;;;;;;;1.82;100.00;96607.50;4999279;28;20120;-87
2021/12/08 04:04:58;;;;;;;4.63;2.47;;;;;;;1.79;100.00;96615.53;5026371;28;20067;-86
2021/12/08 04:07:25;;;;;;;1.23;1.23;;;;;;;1.83;100.00;96623.25;5013677;28;20189;-87
2021/12/08 04:09:51;;;;;;;1.23;1.15;;;;;;;1.75;100.00;96627.16;5006120;28;20040;-84
2021/12/08 04:12:19;;;;;;;0.90;0.90;;;;;;;1.77;100.00;96612.13;5001810;28;20029;-86
2021/12/08 04:14:55;;;;;;;1.58;1.52;;;;;;;1.78;100.00;96611.22;5004616;28;20021;-86
2021/12/08 04:17:37;;;;;;;1.23;1.08;;;;;;;1.89;100.00;96627.41;5010049;28;20034;-87
2021/12/08 04:20:11;;;;;;;0.68;0.68;;;;;;;1.62;100.00;96585.50;5015333;28;20484;-85
2021/12/08 04:22:38;;;;;;;1.52;1.42;;;;;;;1.82;100.00;96615.41;4998427;28;20500;-86
2021/12/08 04:25:08;;;;;;;1.88;1.77;;;;;;;1.91;100.00;96620.28;4992768;28;20036;-86
2021/12/08 04:27:37;;;;;;;9.65;5.15;;;;;;;1.88;100.00;96623.06;4995648;28;20124;-87
2021/12/08 04:30:10;;;;;;;10.07;5.72;;;;;;;1.90;100.00;96626.50;4979292;28;20025;-86
2021/12/08 04:32:36;;;;;;;5.57;2.92;;;;;;;1.87;100.00;96631.91;4987617;28;20514;-87
2021/12/08 04:35:04;;;;;;;5.07;1.98;;;;;;;1.95;100.00;96635.06;4994863;28;20041;-88
2021/12/08 04:37:34;;;;;;;2.03;1.85;;;;;;;1.94;100.00;96638.63;4990715;28;20034;-85
2021/12/08 04:45:51;;;;;;;0.93;0.93;;;;;;;2.03;100.00;96646.16;4991368;28;20160;-87
2021/12/08 04:48:36;;;;;;;2.78;2.58;;;;;;;1.93;100.00;96644.81;4990630;28;20116;-86
2021/12/08 05:04:52;;;;;;;12.68;3.67;;;;;;;2.05;100.00;96673.31;4996364;28;20115;-84
2021/12/08 05:07:47;;;;;;;5.22;4.32;;;;;;;1.91;100.00;96660.69;4981370;28;20026;-86
2021/12/08 05:10:17;;;;;;;5.70;3.85;;;;;;;1.90;100.00;96658.13;4989615;28;20034;-87
2021/12/08 05:12:46;;;;;;;2.75;2.35;;;;;;;1.90;100.00;96647.59;4984964;28;20473;-87
2021/12/08 05:15:15;;;;;;;6.40;4.65;;;;;;;1.88;100.00;96633.59;4981822;28;20409;-86
2021/12/08 05:18:10;;;;;;;2.70;2.50;;;;;;;2.09;100.00;96680.19;5016886;28;20029;-87
2021/12/08 05:20:46;;;;;;;3.90;3.08;;;;;;;2.10;100.00;96673.94;4997705;28;20037;-87
2021/12/08 05:23:29;;;;;;;3.60;1.77;;;;;;;2.15;100.00;96682.56;4989621;28;20074;-86
2021/12/08 05:26:00;;;;;;;3.03;2.35;;;;;;;2.16;100.00;96693.00;4982341;28;20034;-87
2021/12/08 05:28:31;;;;;;;2.60;2.03;;;;;;;1.87;100.00;96653.84;4991826;28;20409;-89
2021/12/08 05:31:10;;;;;;;4.40;2.92;;;;;;;2.02;100.00;96673.44;4986165;28;20038;-85
2021/12/08 05:33:38;;;;;;;2.58;2.38;;;;;;;2.03;100.00;96690.97;4996415;28;20120;-92
2021/12/08 05:36:05;;;;;;;4.03;3.25;;;;;;;2.09;100.00;96685.44;4991392;28;20073;-87
2021/12/08 05:38:31;;;;;;;8.32;3.53;;;;;;;1.88;100.00;96650.28;4990458;28;20108;-87
2021/12/08 05:41:05;;;;;;;4.93;3.60;;;;;;;2.10;100.00;96688.00;4983798;28;20057;-88
2021/12/08 05:43:31;;;;;;;3.80;3.42;;;;;;;2.15;100.00;96696.56;5009396;28;20426;-88
2021/12/08 05:45:57;;;;;;;4.03;3.63;;;;;;;2.26;100.00;96703.16;5008221;28;20021;-87
2021/12/08 05:48:23;;;;;;;5.43;3.97;;;;;;;2.20;100.00;96688.47;5009735;28;20437;-87
2021/12/08 05:51:04;;;;;;;3.33;3.08;;;;;;;2.31;100.00;96717.03;4982555;28;20026;-90
2021/12/08 05:53:30;;;;;;;6.32;2.95;;;;;;;2.16;100.00;96708.84;4975739;28;20525;-87
2021/12/08 05:55:56;;;;;;;6.35;5.70;;;;;;;1.95;100.00;96703.59;5002970;28;20037;-86
2021/12/08 05:58:24;;;;;;;6.55;3.88;;;;;;;1.99;100.00;96721.03;4998617;28;20045;-85
2021/12/08 06:00:55;;;;;;;3.85;3.53;;;;;;;1.91;100.00;96702.88;4985525;28;20033;-87
2021/12/08 06:03:21;;;;;;;13.38;7.05;;;;;;;2.06;100.00;96722.50;4990763;28;20048;-86
2021/12/08 06:05:49;;;;;;;4.30;2.85;;;;;;;1.97;100.00;96713.16;4995909;28;20025;-87
2021/12/08 06:08:15;;;;;;;3.72;3.40;;;;;;;1.95;100.00;96712.38;4998035;28;20536;-87
2021/12/08 06:10:42;;;;;;;3.40;2.63;;;;;;;2.10;100.00;96729.34;4978369;28;20485;-86
2021/12/08 06:13:10;;;;;;;5.70;4.10;;;;;;;2.12;100.00;96711.69;4997492;28;20072;-86
2021/12/08 06:15:36;;;;;;;12.98;3.53;;;;;;;2.34;100.00;96732.75;4989070;28;20029;-87
2021/12/08 06:18:02;;;;;;;2.80;2.63;;;;;;;2.29;100.00;96730.28;4990185;28;20109;-87
2021/12/08 06:20:27;;;;;;;5.63;4.60;;;;;;;2.34;100.00;96732.75;4997818;28;20482;-87
2021/12/08 06:22:56;;;;;;;8.15;5.88;;;;;;;2.34;100.00;96749.41;4996107;28;20026;-87
2021/12/08 06:25:25;;;;;;;22.25;9.82;;;;;;;2.35;100.00;96745.84;5021814;28;20078;-87
2021/12/08 06:27:50;;;;;;;7.82;5.10;;;;;;;2.36;100.00;96739.66;5008269;28;20457;-87
2021/12/08 06:30:20;;;;;;;5.80;4.70;;;;;;;2.41;100.00;96734.16;5016477;28;20029;-87
2021/12/08 06:32:47;;;;;;;3.65;3.35;;;;;;;2.44;100.00;96740.19;4995851;28;20037;-86
2021/12/08 06:35:18;;;;;;;5.75;4.78;;;;;;;2.58;100.00;96745.75;5015648;28;20340;-87
2021/12/08 06:37:44;;;;;;;13.10;6.13;;;;;;;2.67;100.00;96752.38;5010143;28;20029;-87
2021/12/08 06:40:21;;;;;;;7.90;5.90;;;;;;;2.65;100.00;96756.84;5016108;28;20031;-87
2021/12/08 06:42:49;;;;;;;7.95;4.45;;;;;;;2.68;100.00;96747.03;5012665;28;20539;-87
2021/12/08 06:45:20;;;;;;;8.80;6.30;;;;;;;2.69;100.00;96746.13;5006865;28;20021;-87
2021/12/08 06:47:48;;;;;;;18.77;10.25;;;;;;;2.58;100.00;96764.22;5020418;28;20021;-88
2021/12/08 06:50:18;;;;;;;11.93;7.40;;;;;;;2.59;100.00;96754.47;5020242;28;20036;-87
2021/12/08 06:52:44;;;;;;;22.95;12.32;;;;;;;2.81;100.00;96778.16;5018598;28;20040;-86
2021/12/08 06:55:20;;;;;;;21.70;12.30;;;;;;;2.83;100.00;96784.25;5019002;28;20033;-86
2021/12/08 06:57:52;;;;;;;7.32;6.13;;;;;;;2.72;100.00;96777.66;5017678;28;20021;-87
2021/12/08 07:00:34;;;;;;;7.70;5.93;;;;;;;2.59;100.00;96776.47;5008327;28;20511;-87
2021/12/08 15:38:28;;;;;;;5.88;3.38;;;;;;;2.68;97.41;96871.09;5019264;28;20559;-91
2021/12/08 16:00:35;;;;;;;4.82;2.40;;;;;;;1.79;100.00;96797.41;5004819;28;20056;-95
2021/12/08 16:03:28;;;;;;;5.18;3.28;;;;;;;2.53;99.27;96908.69;4994325;28;20033;-89
2021/12/08 16:05:54;;;;;;;1.98;1.48;;;;;;;2.36;96.96;96863.66;4978959;28;20072;-92
2021/12/08 16:08:29;;;;;;;2.78;2.25;;;;;;;2.31;100.00;96854.22;5009242;28;20107;-78
2021/12/08 16:10:55;;;;;;;24.92;7.38;;;;;;;2.56;100.00;96899.78;4983136;28;20028;-77
2021/12/08 16:13:22;;;;;;;6.20;5.10;;;;;;;2.54;100.00;96901.63;4997210;28;20033;-77
2021/12/08 16:19:13;;;;;;;3.45;2.15;;;;;;;2.00;100.00;96857.22;5003850;28;20033;-89
2021/12/08 16:21:42;;;;;;;2.80;1.98;;;;;;;2.15;100.00;96904.94;4976638;28;20034;-92
2021/12/08 16:24:08;;;;;;;10.77;2.80;;;;;;;1.80;100.00;96875.59;4997488;28;20040;-88
2021/12/08 16:26:34;;;;;;;7.68;2.50;;;;;;;1.69;100.00;96870.75;4998489;28;20022;-91
2021/12/08 16:29:00;;;;;;;2.78;1.38;;;;;;;1.72;100.00;96867.13;4987733;28;20036;-90
2021/12/08 16:31:31;;;;;;;1.45;1.40;;;;;;;1.33;100.00;96828.16;4987745;28;20029;-92
2021/12/08 16:33:57;;;;;;;1.67;1.58;;;;;;;1.53;100.00;96865.19;4994481;28;20030;-91
2021/12/08 16:36:22;;;;;;;2.55;2.35;;;;;;;1.78;100.00;96911.69;4983687;28;20124;-90
2021/12/08 16:38:59;;;;;;;2.17;2.08;;;;;;;1.82;100.00;96927.31;5000838;28;20461;-91
2021/12/08 16:44:19;;;;;;;6.05;2.05;;;;;;;1.50;100.00;96896.06;5001711;28;20048;-92
2021/12/08 16:46:45;;;;;;;9.73;3.42;;;;;;;1.39;100.00;96887.66;4979587;28;20032;-91
2021/12/08 16:49:19;;;;;;;4.25;3.15;;;;;;;1.28;100.00;96864.38;4968563;28;20034;-90
2021/12/08 16:51:58;;;;;;;7.18;6.50;;;;;;;1.36;100.00;96877.25;4991198;28;20101;-90
2021/12/08 16:54:26;;;;;;;18.15;6.82;;;;;;;1.38;100.00;96859.63;4992878;28;20031;-91
2021/12/08 16:56:55;;;;;;;7.72;5.75;;;;;;;1.49;100.00;96878.50;4973625;28;20030;-91
2021/12/08 16:59:21;;;;;;;3.05;2.75;;;;;;;1.61;100.00;96901.78;4997701;28;20025;-92
2021/12/08 17:01:51;;;;;;;2.42;1.65;;;;;;;1.46;100.00;96866.31;4996428;28;20036;-90
2021/12/08 17:05:29;;;;;;;;;;;;;;;;;;;;;
2021/12/08 17:15:35;;;;;;;;;;;;;;;;;;;;;
2021/12/08 17:28:19;;;;;;;7.60;4.88;;;;;;;1.60;100.00;96914.09;4913689;29;20111;-93
2021/12/08 17:31:00;;;;;;;5.95;5.38;;;;;;;1.11;100.00;96835.13;4882695;29;20491;-89
2021/12/08 17:33:30;;;;;;;10.68;6.18;;;;;;;1.52;100.00;96905.63;4958668;28;20132;-76
2021/12/08 17:36:14;;;;;;;8.10;2.70;;;;;;;1.65;100.00;96916.56;4991055;28;20097;-78
2021/12/08 17:38:40;;;;;;;2.53;2.33;;;;;;;1.79;100.00;96929.22;4982048;28;20062;-78
2021/12/08 17:41:07;;;;;;;4.30;2.70;;;;;;;1.88;100.00;96934.13;5002850;28;20142;-76
2021/12/08 17:43:34;;;;;;;0.90;0.90;;;;;;;1.90;100.00;96932.31;5006387;28;20091;-76
2021/12/08 17:46:01;;;;;;;2.65;2.15;;;;;;;1.91;100.00;96928.75;5006776;28;20028;-77
2021/12/08 17:48:29;;;;;;;6.85;2.80;;;;;;;2.03;100.00;96938.84;4986068;28;20140;-89
2021/12/08 17:50:56;;;;;;;1.95;1.85;;;;;;;2.00;100.00;96928.44;4985890;28;20093;-85
2021/12/08 17:53:22;;;;;;;7.18;4.65;;;;;;;1.94;100.00;96912.84;4986530;28;20037;-92
2021/12/08 17:56:25;;;;;;;9.50;5.13;;;;;;;2.25;100.00;96939.72;4983043;28;20030;-90
2021/12/08 17:58:51;;;;;;;5.75;4.20;;;;;;;1.98;100.00;96885.41;5016721;28;20145;-92
2021/12/08 18:01:17;;;;;;;1.98;1.88;;;;;;;1.99;100.00;96895.06;4986486;28;20509;-92
2021/12/08 18:03:42;;;;;;;1.25;1.15;;;;;;;2.00;100.00;96926.63;4995959;28;20034;-92
2021/12/08 18:06:08;;;;;;;2.58;2.05;;;;;;;1.58;100.00;96881.66;4989095;28;20021;-91
2021/12/08 18:08:34;;;;;;;5.30;2.55;;;;;;;1.51;100.00;96884.56;4992074;28;20061;-90
2021/12/08 18:11:02;;;;;;;1.75;1.45;;;;;;;1.58;100.00;96910.66;4985090;28;20446;-89
2021/12/08 18:13:28;;;;;;;1.75;0.95;;;;;;;1.42;100.00;96903.34;4994062;28;20018;-93
2021/12/08 18:15:55;;;;;;;2.78;2.53;;;;;;;1.40;100.00;96916.59;5003645;28;20041;-91
2021/12/08 18:18:22;;;;;;;3.15;2.30;;;;;;;1.37;100.00;96911.44;4994690;28;20061;-92
2021/12/08 18:20:48;;;;;;;1.48;1.25;;;;;;;1.20;100.00;96900.63;4993907;28;20033;-92
2021/12/08 18:23:14;;;;;;;1.00;1.00;;;;;;;1.15;100.00;96905.22;4988020;28;20029;-90
2021/12/08 18:25:41;;;;;;;1.30;1.27;;;;;;;1.05;100.00;96909.06;4997767;28;20041;-90
2021/12/08 18:28:10;;;;;;;2.80;1.80;;;;;;;0.99;100.00;96893.50;4983278;28;20386;-88
2021/12/08 18:30:38;;;;;;;3.45;2.28;;;;;;;1.18;100.00;96910.38;4987281;28;20040;-90
2021/12/08 18:33:04;;;;;;;1.75;1.65;;;;;;;1.32;100.00;96917.78;4977669;28;20033;-78
2021/12/08 18:35:40;;;;;;;1.85;1.75;;;;;;;1.57;100.00;96924.75;4981990;28;20038;-80
2021/12/08 18:38:07;;;;;;;1.75;1.65;;;;;;;1.89;100.00;96920.03;5010167;28;20029;-77
2021/12/08 18:40:39;;;;;;;0.77;0.77;;;;;;;2.03;100.00;96917.75;5015995;28;20063;-79
2021/12/08 18:43:06;;;;;;;1.10;0.70;;;;;;;2.02;100.00;96906.34;5013116;28;20033;-91
2021/12/08 18:45:34;;;;;;;0.52;0.52;;;;;;;1.93;100.00;96911.13;5017917;28;20034;-93
2021/12/08 18:48:00;;;;;;;1.98;1.58;;;;;;;1.67;100.00;96913.84;5014942;28;20030;-92
2021/12/08 18:50:26;;;;;;;1.75;1.65;;;;;;;1.37;100.00;96905.31;5009466;28;20057;-92
2021/12/08 18:52:52;;;;;;;3.40;1.70;;;;;;;1.32;100.00;96910.75;5022008;28;20120;-93
2021/12/08 18:55:17;;;;;;;1.52;1.42;;;;;;;0.86;100.00;96839.59;5027856;28;20034;-92
2021/12/08 18:57:45;;;;;;;3.00;2.63;;;;;;;1.36;100.00;96922.00;5025490;28;20029;-92
2021/12/08 19:00:14;;;;;;;5.10;3.47;;;;;;;1.32;100.00;96944.13;5030550;28;20029;-93
2021/12/08 19:02:42;;;;;;;4.13;2.65;;;;;;;0.78;100.00;96847.72;5031831;28;20021;-92
2021/12/08 19:05:08;;;;;;;7.15;5.40;;;;;;;0.65;100.00;96845.59;5034031;28;20022;-94
2021/12/08 19:07:36;;;;;;;6.75;5.47;;;;;;;1.27;100.00;96953.94;5034202;28;20029;-93
2021/12/08 19:10:05;;;;;;;4.88;3.80;;;;;;;0.73;100.00;96869.88;5031714;28;20037;-94
2021/12/08 19:12:30;;;;;;;5.25;3.58;;;;;;;0.92;100.00;96902.53;5028596;28;20018;-92
2021/12/08 19:14:56;;;;;;;7.22;3.75;;;;;;;0.60;100.00;96860.66;5027613;28;20040;-93
2021/12/08 19:17:22;;;;;;;4.45;3.03;;;;;;;0.52;100.00;96867.03;5024773;28;20507;-94
2021/12/08 19:19:47;;;;;;;6.53;2.42;;;;;;;0.84;100.00;96909.81;5023882;28;20021;-94
2021/12/08 19:22:13;;;;;;;7.03;3.88;;;;;;;0.66;100.00;96879.72;5023072;28;20164;-94
2021/12/08 19:28:13;;;;;;;3.80;3.47;;;;;;;1.06;100.00;96966.97;5041955;28;20090;-93
2021/12/08 19:30:40;;;;;;;2.50;2.30;;;;;;;1.01;100.00;96970.66;5023470;28;20032;-93
2021/12/08 19:33:11;;;;;;;2.55;2.33;;;;;;;0.76;100.00;96930.28;5023396;28;20087;-93
2021/12/08 19:35:39;;;;;;;2.88;2.67;;;;;;;0.85;100.00;96962.41;5023168;28;20033;-93
2021/12/08 19:38:06;;;;;;;4.45;2.92;;;;;;;0.62;100.00;96932.50;5024164;28;20195;-93
2021/12/08 19:40:32;;;;;;;7.88;3.47;;;;;;;0.74;100.00;96963.69;5005343;28;20049;-92
2021/12/08 19:42:58;;;;;;;8.25;5.57;;;;;;;0.63;100.00;96937.72;5004004;28;20030;-93
2021/12/08 19:45:24;;;;;;;6.82;4.07;;;;;;;0.60;100.00;96939.59;5002994;28;20025;-92
2021/12/08 19:47:52;;;;;;;3.13;2.72;;;;;;;0.70;100.00;96962.94;5012494;28;20033;-92
2021/12/08 19:50:21;;;;;;;2.35;2.15;;;;;;;0.49;100.00;96938.16;4998767;28;20065;-92
2021/12/08 19:52:47;;;;;;;2.60;2.38;;;;;;;0.39;100.00;96934.13;4986061;28;20026;-95
2021/12/08 19:55:14;;;;;;;1.45;1.33;;;;;;;0.20;100.00;96917.19;4987662;28;20037;-94
2021/12/08 19:58:13;;;;;;;7.10;1.83;;;;;;;0.45;100.00;96962.84;4989543;28;20026;-93
2021/12/08 20:00:38;;;;;;;2.22;1.17;;;;;;;0.34;100.00;96962.31;4998680;28;20057;-93
2021/12/08 20:03:06;;;;;;;2.50;2.30;;;;;;;0.13;100.00;96933.19;5002748;28;20026;-92
2021/12/08 20:05:37;;;;;;;2.28;2.15;;;;;;;0.29;100.00;96961.59;5002181;28;20045;-94
2021/12/08 20:08:04;;;;;;;1.73;1.60;;;;;;;0.18;100.00;96949.72;5003187;28;20134;-94
2021/12/08 20:10:30;;;;;;;3.03;1.45;;;;;;;0.29;100.00;96964.25;5003644;28;20026;-93
2021/12/08 20:12:56;;;;;;;1.25;1.23;;;;;;;-0.01;100.00;96887.19;5006628;28;20038;-94
2021/12/08 20:15:24;;;;;;;5.18;4.78;;;;;;;0.43;100.00;96964.66;4999717;28;20390;-92
2021/12/08 20:17:50;;;;;;;3.22;2.92;;;;;;;0.34;100.00;96950.97;4988811;28;20029;-94
2021/12/08 20:20:19;;;;;;;6.95;3.70;;;;;;;0.21;100.00;96931.22;4988466;28;20037;-94
2021/12/08 20:22:49;;;;;;;5.68;4.28;;;;;;;0.11;100.00;96909.59;4989192;28;20022;-93
2021/12/08 20:25:18;;;;;;;6.07;2.92;;;;;;;0.34;100.00;96951.78;4988962;28;20021;-77
2021/12/08 20:27:45;;;;;;;7.95;7.10;;;;;;;0.35;100.00;96953.53;5005341;28;20080;-93
2021/12/08 20:30:13;;;;;;;9.25;7.28;;;;;;;0.28;100.00;96925.69;4992538;28;20026;-92
2021/12/08 20:32:40;;;;;;;4.28;2.55;;;;;;;0.38;100.00;96929.75;5009339;28;20096;-93
2021/12/08 20:35:08;;;;;;;3.38;2.65;;;;;;;0.47;100.00;96942.63;5008808;28;20037;-93
2021/12/08 20:37:35;;;;;;;3.17;2.50;;;;;;;0.41;100.00;96932.28;5009120;28;20022;-93
2021/12/08 20:40:01;;;;;;;9.10;5.57;;;;;;;0.47;100.00;96947.88;5022850;28;20045;-93
2021/12/08 20:42:27;;;;;;;24.10;9.35;;;;;;;0.45;100.00;96938.31;5029664;28;20025;-92
2021/12/08 20:44:52;;;;;;;2.08;1.95;;;;;;;0.34;100.00;96919.41;5029744;28;20025;-93
2021/12/08 20:47:18;;;;;;;3.20;2.95;;;;;;;0.24;100.00;96913.56;5029577;28;20393;-92
2021/12/08 20:49:45;;;;;;;10.23;3.42;;;;;;;-0.13;100.00;96853.41;5030776;28;20025;-92
2021/12/08 20:52:11;;;;;;;4.18;3.75;;;;;;;0.39;100.00;96952.53;5031813;28;20112;-94
2021/12/08 20:54:38;;;;;;;8.52;6.20;;;;;;;0.34;100.00;96945.69;5031884;28;20025;-94
2021/12/08 20:57:08;;;;;;;3.22;3.03;;;;;;;0.18;100.00;96924.28;5032444;28;20075;-92
2021/12/08 20:59:38;;;;;;;19.08;4.38;;;;;;;-0.16;100.00;96869.28;5031225;28;20038;-94
2021/12/08 21:02:08;;;;;;;2.13;2.03;;;;;;;0.10;100.00;96892.09;5048415;28;20042;-94
2021/12/08 21:04:34;;;;;;;2.08;1.98;;;;;;;0.19;100.00;96896.19;5029848;28;20037;-93
2021/12/08 21:07:01;;;;;;;0.93;0.88;;;;;;;0.50;100.00;96942.50;5029254;28;20038;-92
2021/12/08 21:09:27;;;;;;;1.25;1.15;;;;;;;0.43;100.00;96943.59;5021134;28;20033;-94
2021/12/08 21:11:54;;;;;;;0.90;0.90;;;;;;;0.09;100.00;96884.28;5021567;28;20406;-94
2021/12/08 21:14:21;;;;;;;0.88;0.88;;;;;;;0.24;100.00;96913.56;5038944;28;20481;-93
2021/12/08 21:16:49;;;;;;;3.33;1.52;;;;;;;0.39;100.00;96939.38;5038811;28;20030;-94
2021/12/08 21:19:15;;;;;;;3.63;1.77;;;;;;;0.17;100.00;96938.31;5022579;28;20098;-93
2021/12/08 21:21:44;;;;;;;1.25;1.25;;;;;;;0.14;100.00;96951.56;5026851;28;20037;-92
2021/12/08 21:24:10;;;;;;;2.35;1.85;;;;;;;0.14;100.00;96948.94;5012615;28;20036;-94
2021/12/08 21:26:37;;;;;;;0.77;0.77;;;;;;;-0.29;100.00;96906.47;5005325;28;20026;-94
2021/12/08 21:29:05;;;;;;;0.52;0.52;;;;;;;-0.39;100.00;96911.13;5004770;28;20048;-92
2021/12/08 21:31:31;;;;;;;1.58;1.48;;;;;;;-0.06;100.00;96948.66;5006067;28;20036;-93
2021/12/08 21:34:01;;;;;;;2.33;1.88;;;;;;;-0.09;100.00;96933.84;5007635;28;20029;-93
2021/12/08 21:36:28;;;;;;;42.83;2.43;;;;;;;-0.24;100.00;96925.56;5023558;28;20400;-94
2021/12/08 21:38:55;;;;;;;3.30;2.15;;;;;;;-0.02;100.00;96942.41;5006310;28;20073;-93
2021/12/08 21:41:21;;;;;;;2.55;2.35;;;;;;;-0.26;100.00;96895.88;5008258;28;20124;-92
2021/12/08 21:43:50;;;;;;;4.15;2.72;;;;;;;-0.28;100.00;96887.19;5019198;28;20475;-93